sensor_id;sensor_type;location;lat;lon;timestamp;P1;durP1;ratioP1;P2;durP2;ratioP2
15354;SDS011;7777;52.254;9.618;2023-02-28T00:00:28;3.00;;;1.73;;
15354;SDS011;7777;52.254;9.618;2023-02-28T00:02:55;3.97;;;1.83;;
15354;SDS011;7777;52.254;9.618;2023-02-28T00:05:21;2.23;;;1.70;;
15354;SDS011;7777;52.254;9.618;2023-02-28T00:07:49;2.80;;;1.60;;
15354;SDS011;7777;52.254;9.618;2023-02-28T00:10:17;3.33;;;1.70;;
15354;SDS011;7777;52.254;9.618;2023-02-28T00:12:51;3.30;;;1.83;;
15354;SDS011;7777;52.254;9.618;2023-02-28T00:15:21;5.03;;;1.83;;
15354;SDS011;7777;52.254;9.618;2023-02-28T00:17:48;3.33;;;1.50;;
15354;SDS011;7777;52.254;9.618;2023-02-28T00:20:15;4.23;;;1.60;;
15354;SDS011;7777;52.254;9.618;2023-02-28T00:22:45;3.70;;;1.83;;
15354;SDS011;7777;52.254;9.618;2023-02-28T00:25:20;3.03;;;1.43;;
15354;SDS011;7777;52.254;9.618;2023-02-28T00:27:49;7.83;;;2.00;;
15354;SDS011;7777;52.254;9.618;2023-02-28T00:30:16;3.83;;;1.73;;
15354;SDS011;7777;52.254;9.618;2023-02-28T00:32:45;5.97;;;2.67;;
15354;SDS011;7777;52.254;9.618;2023-02-28T00:35:11;7.03;;;2.13;;
15354;SDS011;7777;52.254;9.618;2023-02-28T00:37:37;5.43;;;2.47;;
15354;SDS011;7777;52.254;9.618;2023-02-28T00:40:03;4.77;;;2.13;;
15354;SDS011;7777;52.254;9.618;2023-02-28T00:42:31;6.00;;;2.10;;
15354;SDS011;7777;52.254;9.618;2023-02-28T00:44:58;6.43;;;2.20;;
15354;SDS011;7777;52.254;9.618;2023-02-28T00:47:23;5.03;;;2.57;;
15354;SDS011;7777;52.254;9.618;2023-02-28T00:49:49;4.87;;;2.30;;
15354;SDS011;7777;52.254;9.618;2023-02-28T00:52:15;8.63;;;2.80;;
15354;SDS011;7777;52.254;9.618;2023-02-28T00:54:41;5.13;;;2.43;;
15354;SDS011;7777;52.254;9.618;2023-02-28T00:57:07;5.03;;;2.60;;
15354;SDS011;7777;52.254;9.618;2023-02-28T00:59:33;5.67;;;2.50;;
15354;SDS011;7777;52.254;9.618;2023-02-28T01:01:59;7.23;;;2.23;;
15354;SDS011;7777;52.254;9.618;2023-02-28T01:04:25;3.73;;;2.13;;
15354;SDS011;7777;52.254;9.618;2023-02-28T01:06:51;5.47;;;2.90;;
15354;SDS011;7777;52.254;9.618;2023-02-28T01:09:17;4.87;;;2.10;;
15354;SDS011;7777;52.254;9.618;2023-02-28T01:11:42;6.20;;;2.63;;
15354;SDS011;7777;52.254;9.618;2023-02-28T01:14:11;3.47;;;1.93;;
15354;SDS011;7777;52.254;9.618;2023-02-28T01:16:39;5.57;;;2.40;;
15354;SDS011;7777;52.254;9.618;2023-02-28T01:19:05;4.23;;;2.53;;
15354;SDS011;7777;52.254;9.618;2023-02-28T01:21:31;4.50;;;2.47;;
15354;SDS011;7777;52.254;9.618;2023-02-28T01:23:57;5.57;;;2.53;;
15354;SDS011;7777;52.254;9.618;2023-02-28T01:26:23;4.90;;;2.70;;
15354;SDS011;7777;52.254;9.618;2023-02-28T01:28:50;4.57;;;2.53;;
15354;SDS011;7777;52.254;9.618;2023-02-28T01:31:17;5.37;;;3.00;;
15354;SDS011;7777;52.254;9.618;2023-02-28T01:33:45;4.27;;;2.43;;
15354;SDS011;7777;52.254;9.618;2023-02-28T01:36:12;4.00;;;2.33;;
15354;SDS011;7777;52.254;9.618;2023-02-28T01:38:41;4.40;;;2.53;;
15354;SDS011;7777;52.254;9.618;2023-02-28T01:41:27;4.63;;;2.77;;
15354;SDS011;7777;52.254;9.618;2023-02-28T01:44:00;3.40;;;2.47;;
15354;SDS011;7777;52.254;9.618;2023-02-28T01:46:35;4.07;;;2.43;;
15354;SDS011;7777;52.254;9.618;2023-02-28T01:49:03;4.37;;;2.30;;
15354;SDS011;7777;52.254;9.618;2023-02-28T01:54:24;3.33;;;1.77;;
15354;SDS011;7777;52.254;9.618;2023-02-28T01:56:57;4.90;;;2.70;;
15354;SDS011;7777;52.254;9.618;2023-02-28T01:59:46;13.13;;;6.10;;
15354;SDS011;7777;52.254;9.618;2023-02-28T02:02:20;17.43;;;5.67;;
15354;SDS011;7777;52.254;9.618;2023-02-28T02:04:53;17.63;;;7.30;;
15354;SDS011;7777;52.254;9.618;2023-02-28T02:07:38;21.00;;;7.53;;
15354;SDS011;7777;52.254;9.618;2023-02-28T02:15:43;13.57;;;5.47;;
15354;SDS011;7777;52.254;9.618;2023-02-28T02:18:38;9.67;;;4.83;;
15354;SDS011;7777;52.254;9.618;2023-02-28T02:21:35;11.23;;;4.40;;
15354;SDS011;7777;52.254;9.618;2023-02-28T02:24:46;8.57;;;3.50;;
15354;SDS011;7777;52.254;9.618;2023-02-28T02:27:27;7.33;;;3.40;;
15354;SDS011;7777;52.254;9.618;2023-02-28T02:35:37;5.07;;;2.73;;
15354;SDS011;7777;52.254;9.618;2023-02-28T02:38:36;3.80;;;2.27;;
15354;SDS011;7777;52.254;9.618;2023-02-28T02:41:28;2.73;;;1.53;;
15354;SDS011;7777;52.254;9.618;2023-02-28T02:44:13;3.37;;;1.90;;
15354;SDS011;7777;52.254;9.618;2023-02-28T02:46:44;4.90;;;2.23;;
15354;SDS011;7777;52.254;9.618;2023-02-28T02:49:15;3.03;;;1.57;;
15354;SDS011;7777;52.254;9.618;2023-02-28T02:51:48;2.97;;;1.60;;
15354;SDS011;7777;52.254;9.618;2023-02-28T02:54:17;2.93;;;1.80;;
15354;SDS011;7777;52.254;9.618;2023-02-28T02:56:48;8.07;;;2.33;;
15354;SDS011;7777;52.254;9.618;2023-02-28T02:59:16;3.20;;;1.73;;
15354;SDS011;7777;52.254;9.618;2023-02-28T03:01:50;2.50;;;1.50;;
15354;SDS011;7777;52.254;9.618;2023-02-28T03:04:22;4.77;;;2.03;;
15354;SDS011;7777;52.254;9.618;2023-02-28T03:06:50;3.67;;;1.93;;
15354;SDS011;7777;52.254;9.618;2023-02-28T03:09:20;3.13;;;1.77;;
15354;SDS011;7777;52.254;9.618;2023-02-28T03:11:51;4.10;;;2.10;;
15354;SDS011;7777;52.254;9.618;2023-02-28T03:22:34;3.83;;;2.00;;
15354;SDS011;7777;52.254;9.618;2023-02-28T03:33:37;2.90;;;1.63;;
15354;SDS011;7777;52.254;9.618;2023-02-28T03:36:13;2.87;;;1.80;;
15354;SDS011;7777;52.254;9.618;2023-02-28T03:39:03;2.87;;;1.90;;
15354;SDS011;7777;52.254;9.618;2023-02-28T03:41:36;2.93;;;1.80;;
15354;SDS011;7777;52.254;9.618;2023-02-28T03:44:12;3.37;;;1.80;;
15354;SDS011;7777;52.254;9.618;2023-02-28T03:46:48;3.43;;;2.13;;
15354;SDS011;7777;52.254;9.618;2023-02-28T03:49:35;8.73;;;2.07;;
15354;SDS011;7777;52.254;9.618;2023-02-28T03:52:13;5.23;;;2.63;;
15354;SDS011;7777;52.254;9.618;2023-02-28T03:54:43;6.50;;;2.03;;
15354;SDS011;7777;52.254;9.618;2023-02-28T04:00:13;4.87;;;2.00;;
15354;SDS011;7777;52.254;9.618;2023-02-28T04:02:45;3.10;;;1.90;;
15354;SDS011;7777;52.254;9.618;2023-02-28T04:05:11;4.60;;;2.07;;
15354;SDS011;7777;52.254;9.618;2023-02-28T04:07:37;4.23;;;2.07;;
15354;SDS011;7777;52.254;9.618;2023-02-28T04:10:03;3.33;;;2.17;;
15354;SDS011;7777;52.254;9.618;2023-02-28T04:12:30;5.10;;;2.40;;
15354;SDS011;7777;52.254;9.618;2023-02-28T04:14:55;3.37;;;2.23;;
15354;SDS011;7777;52.254;9.618;2023-02-28T04:17:21;2.37;;;1.77;;
15354;SDS011;7777;52.254;9.618;2023-02-28T04:19:47;4.90;;;2.20;;
15354;SDS011;7777;52.254;9.618;2023-02-28T04:22:12;3.10;;;2.03;;
15354;SDS011;7777;52.254;9.618;2023-02-28T04:24:38;4.40;;;1.80;;
15354;SDS011;7777;52.254;9.618;2023-02-28T04:27:06;6.87;;;1.87;;
15354;SDS011;7777;52.254;9.618;2023-02-28T04:29:33;2.33;;;1.57;;
15354;SDS011;7777;52.254;9.618;2023-02-28T04:31:59;5.20;;;1.60;;
15354;SDS011;7777;52.254;9.618;2023-02-28T04:34:27;4.20;;;1.97;;
15354;SDS011;7777;52.254;9.618;2023-02-28T04:36:56;2.17;;;1.47;;
15354;SDS011;7777;52.254;9.618;2023-02-28T04:39:24;5.87;;;1.40;;
15354;SDS011;7777;52.254;9.618;2023-02-28T04:41:56;3.30;;;1.57;;
15354;SDS011;7777;52.254;9.618;2023-02-28T04:44:22;6.97;;;1.83;;
15354;SDS011;7777;52.254;9.618;2023-02-28T04:46:48;2.67;;;1.63;;
15354;SDS011;7777;52.254;9.618;2023-02-28T04:49:15;2.17;;;1.50;;
15354;SDS011;7777;52.254;9.618;2023-02-28T04:51:41;3.43;;;2.13;;
15354;SDS011;7777;52.254;9.618;2023-02-28T04:54:07;2.47;;;1.67;;
15354;SDS011;7777;52.254;9.618;2023-02-28T04:56:33;5.10;;;1.93;;
15354;SDS011;7777;52.254;9.618;2023-02-28T04:58:59;2.50;;;1.43;;
15354;SDS011;7777;52.254;9.618;2023-02-28T05:03:58;2.60;;;1.70;;
15354;SDS011;7777;52.254;9.618;2023-02-28T05:06:26;3.07;;;1.50;;
15354;SDS011;7777;52.254;9.618;2023-02-28T05:08:55;2.47;;;1.63;;
15354;SDS011;7777;52.254;9.618;2023-02-28T05:11:25;2.03;;;1.50;;
15354;SDS011;7777;52.254;9.618;2023-02-28T05:14:04;2.13;;;1.30;;
15354;SDS011;7777;52.254;9.618;2023-02-28T05:16:35;2.50;;;1.50;;
15354;SDS011;7777;52.254;9.618;2023-02-28T05:19:01;4.80;;;1.63;;
15354;SDS011;7777;52.254;9.618;2023-02-28T05:21:34;2.20;;;1.40;;
15354;SDS011;7777;52.254;9.618;2023-02-28T05:24:05;7.17;;;1.70;;
15354;SDS011;7777;52.254;9.618;2023-02-28T05:26:35;2.07;;;1.53;;
15354;SDS011;7777;52.254;9.618;2023-02-28T05:29:06;3.07;;;1.60;;
15354;SDS011;7777;52.254;9.618;2023-02-28T05:31:33;2.73;;;1.63;;
15354;SDS011;7777;52.254;9.618;2023-02-28T05:33:59;4.13;;;2.03;;
15354;SDS011;7777;52.254;9.618;2023-02-28T05:36:30;4.23;;;2.40;;
15354;SDS011;7777;52.254;9.618;2023-02-28T05:38:56;4.13;;;2.33;;
15354;SDS011;7777;52.254;9.618;2023-02-28T05:41:22;3.40;;;1.63;;
15354;SDS011;7777;52.254;9.618;2023-02-28T05:43:54;3.30;;;2.00;;
15354;SDS011;7777;52.254;9.618;2023-02-28T05:46:19;4.67;;;2.03;;
15354;SDS011;7777;52.254;9.618;2023-02-28T05:48:46;5.87;;;2.23;;
15354;SDS011;7777;52.254;9.618;2023-02-28T05:51:13;5.10;;;2.17;;
15354;SDS011;7777;52.254;9.618;2023-02-28T05:53:38;4.90;;;2.60;;
15354;SDS011;7777;52.254;9.618;2023-02-28T05:56:04;5.00;;;2.57;;
15354;SDS011;7777;52.254;9.618;2023-02-28T05:58:30;3.20;;;1.60;;
15354;SDS011;7777;52.254;9.618;2023-02-28T06:00:57;4.07;;;2.47;;
15354;SDS011;7777;52.254;9.618;2023-02-28T06:03:24;3.40;;;1.90;;
15354;SDS011;7777;52.254;9.618;2023-02-28T06:05:50;3.23;;;1.90;;
15354;SDS011;7777;52.254;9.618;2023-02-28T06:08:16;3.83;;;2.10;;
15354;SDS011;7777;52.254;9.618;2023-02-28T06:10:43;4.80;;;2.43;;
15354;SDS011;7777;52.254;9.618;2023-02-28T06:13:10;4.80;;;2.30;;
15354;SDS011;7777;52.254;9.618;2023-02-28T06:15:37;6.93;;;2.20;;
15354;SDS011;7777;52.254;9.618;2023-02-28T06:18:04;4.43;;;2.37;;
15354;SDS011;7777;52.254;9.618;2023-02-28T06:20:30;5.13;;;2.43;;
15354;SDS011;7777;52.254;9.618;2023-02-28T06:22:56;3.30;;;2.40;;
15354;SDS011;7777;52.254;9.618;2023-02-28T06:25:26;4.10;;;2.30;;
15354;SDS011;7777;52.254;9.618;2023-02-28T06:27:53;4.00;;;2.27;;
15354;SDS011;7777;52.254;9.618;2023-02-28T06:30:20;4.23;;;2.33;;
15354;SDS011;7777;52.254;9.618;2023-02-28T06:32:51;4.27;;;2.23;;
15354;SDS011;7777;52.254;9.618;2023-02-28T06:35:18;4.37;;;2.53;;
15354;SDS011;7777;52.254;9.618;2023-02-28T06:37:44;5.77;;;2.70;;
15354;SDS011;7777;52.254;9.618;2023-02-28T06:40:12;4.40;;;2.73;;
15354;SDS011;7777;52.254;9.618;2023-02-28T06:42:38;6.63;;;2.90;;
15354;SDS011;7777;52.254;9.618;2023-02-28T06:45:04;4.60;;;3.00;;
15354;SDS011;7777;52.254;9.618;2023-02-28T06:47:34;4.43;;;2.80;;
15354;SDS011;7777;52.254;9.618;2023-02-28T06:50:01;4.37;;;2.90;;
15354;SDS011;7777;52.254;9.618;2023-02-28T06:52:27;4.23;;;3.07;;
15354;SDS011;7777;52.254;9.618;2023-02-28T06:54:53;6.67;;;3.50;;
15354;SDS011;7777;52.254;9.618;2023-02-28T06:57:28;6.23;;;4.40;;
15354;SDS011;7777;52.254;9.618;2023-02-28T06:59:58;10.00;;;5.40;;
15354;SDS011;7777;52.254;9.618;2023-02-28T07:02:26;8.00;;;4.50;;
15354;SDS011;7777;52.254;9.618;2023-02-28T07:04:52;6.27;;;4.40;;
15354;SDS011;7777;52.254;9.618;2023-02-28T07:07:18;9.47;;;5.40;;
15354;SDS011;7777;52.254;9.618;2023-02-28T07:09:44;8.13;;;4.53;;
15354;SDS011;7777;52.254;9.618;2023-02-28T07:12:10;9.70;;;4.73;;
15354;SDS011;7777;52.254;9.618;2023-02-28T07:14:36;7.57;;;4.93;;
15354;SDS011;7777;52.254;9.618;2023-02-28T07:17:02;10.40;;;4.57;;
15354;SDS011;7777;52.254;9.618;2023-02-28T07:19:28;10.63;;;5.00;;
15354;SDS011;7777;52.254;9.618;2023-02-28T07:21:54;6.53;;;4.63;;
15354;SDS011;7777;52.254;9.618;2023-02-28T07:24:20;6.80;;;4.30;;
15354;SDS011;7777;52.254;9.618;2023-02-28T07:26:46;7.03;;;4.37;;
15354;SDS011;7777;52.254;9.618;2023-02-28T07:29:11;7.10;;;4.67;;
15354;SDS011;7777;52.254;9.618;2023-02-28T07:31:37;5.77;;;4.10;;
15354;SDS011;7777;52.254;9.618;2023-02-28T07:34:03;5.27;;;4.00;;
15354;SDS011;7777;52.254;9.618;2023-02-28T07:36:32;4.30;;;3.20;;
15354;SDS011;7777;52.254;9.618;2023-02-28T07:38:58;6.10;;;3.83;;
15354;SDS011;7777;52.254;9.618;2023-02-28T07:41:24;5.00;;;3.93;;
15354;SDS011;7777;52.254;9.618;2023-02-28T07:43:53;5.80;;;3.73;;
15354;SDS011;7777;52.254;9.618;2023-02-28T07:46:20;7.97;;;4.30;;
15354;SDS011;7777;52.254;9.618;2023-02-28T07:48:46;7.10;;;3.97;;
15354;SDS011;7777;52.254;9.618;2023-02-28T07:51:12;16.53;;;4.23;;
15354;SDS011;7777;52.254;9.618;2023-02-28T07:53:38;6.50;;;3.83;;
15354;SDS011;7777;52.254;9.618;2023-02-28T07:56:04;6.20;;;4.07;;
15354;SDS011;7777;52.254;9.618;2023-02-28T07:58:30;5.87;;;3.73;;
15354;SDS011;7777;52.254;9.618;2023-02-28T08:00:56;5.40;;;3.37;;
15354;SDS011;7777;52.254;9.618;2023-02-28T08:03:30;6.20;;;4.30;;
15354;SDS011;7777;52.254;9.618;2023-02-28T08:05:56;10.07;;;4.47;;
15354;SDS011;7777;52.254;9.618;2023-02-28T08:08:21;6.17;;;4.67;;
15354;SDS011;7777;52.254;9.618;2023-02-28T08:10:47;10.53;;;4.40;;
15354;SDS011;7777;52.254;9.618;2023-02-28T08:13:13;7.97;;;4.00;;
15354;SDS011;7777;52.254;9.618;2023-02-28T08:15:40;9.20;;;4.33;;
15354;SDS011;7777;52.254;9.618;2023-02-28T08:18:07;8.40;;;4.40;;
15354;SDS011;7777;52.254;9.618;2023-02-28T08:20:33;7.10;;;5.00;;
15354;SDS011;7777;52.254;9.618;2023-02-28T08:22:59;8.03;;;5.00;;
15354;SDS011;7777;52.254;9.618;2023-02-28T08:25:25;6.30;;;4.33;;
15354;SDS011;7777;52.254;9.618;2023-02-28T08:27:51;10.53;;;5.97;;
15354;SDS011;7777;52.254;9.618;2023-02-28T08:30:17;8.40;;;5.13;;
15354;SDS011;7777;52.254;9.618;2023-02-28T08:32:43;10.33;;;4.93;;
15354;SDS011;7777;52.254;9.618;2023-02-28T08:35:09;14.33;;;6.03;;
15354;SDS011;7777;52.254;9.618;2023-02-28T08:37:35;9.63;;;5.07;;
15354;SDS011;7777;52.254;9.618;2023-02-28T08:40:01;11.03;;;5.50;;
15354;SDS011;7777;52.254;9.618;2023-02-28T08:42:29;7.80;;;5.03;;
15354;SDS011;7777;52.254;9.618;2023-02-28T08:44:55;8.47;;;4.43;;
15354;SDS011;7777;52.254;9.618;2023-02-28T08:47:21;9.80;;;4.90;;
15354;SDS011;7777;52.254;9.618;2023-02-28T08:49:47;6.03;;;4.10;;
15354;SDS011;7777;52.254;9.618;2023-02-28T08:52:13;8.40;;;4.77;;
15354;SDS011;7777;52.254;9.618;2023-02-28T08:54:38;6.03;;;4.00;;
15354;SDS011;7777;52.254;9.618;2023-02-28T08:57:04;7.63;;;4.40;;
15354;SDS011;7777;52.254;9.618;2023-02-28T08:59:30;17.60;;;4.73;;
15354;SDS011;7777;52.254;9.618;2023-02-28T09:01:57;6.60;;;4.30;;
15354;SDS011;7777;52.254;9.618;2023-02-28T09:04:23;6.93;;;3.97;;
15354;SDS011;7777;52.254;9.618;2023-02-28T09:06:48;5.23;;;3.60;;
15354;SDS011;7777;52.254;9.618;2023-02-28T09:09:15;5.93;;;4.10;;
15354;SDS011;7777;52.254;9.618;2023-02-28T09:11:41;7.53;;;3.97;;
15354;SDS011;7777;52.254;9.618;2023-02-28T09:14:07;6.67;;;4.00;;
15354;SDS011;7777;52.254;9.618;2023-02-28T09:16:33;4.77;;;3.87;;
15354;SDS011;7777;52.254;9.618;2023-02-28T09:18:59;6.20;;;3.80;;
15354;SDS011;7777;52.254;9.618;2023-02-28T09:21:26;6.47;;;3.60;;
15354;SDS011;7777;52.254;9.618;2023-02-28T09:23:52;6.93;;;4.17;;
15354;SDS011;7777;52.254;9.618;2023-02-28T09:26:20;6.70;;;3.53;;
15354;SDS011;7777;52.254;9.618;2023-02-28T09:28:52;8.57;;;3.70;;
15354;SDS011;7777;52.254;9.618;2023-02-28T09:31:20;6.53;;;4.03;;
15354;SDS011;7777;52.254;9.618;2023-02-28T09:33:49;7.00;;;3.93;;
15354;SDS011;7777;52.254;9.618;2023-02-28T09:36:18;5.87;;;3.73;;
15354;SDS011;7777;52.254;9.618;2023-02-28T09:38:48;4.90;;;3.00;;
15354;SDS011;7777;52.254;9.618;2023-02-28T09:41:20;4.67;;;3.50;;
15354;SDS011;7777;52.254;9.618;2023-02-28T09:43:52;4.87;;;3.60;;
15354;SDS011;7777;52.254;9.618;2023-02-28T09:46:27;7.30;;;3.57;;
15354;SDS011;7777;52.254;9.618;2023-02-28T09:48:56;5.70;;;3.67;;
15354;SDS011;7777;52.254;9.618;2023-02-28T09:54:04;6.07;;;4.20;;
15354;SDS011;7777;52.254;9.618;2023-02-28T09:56:33;7.13;;;3.77;;
15354;SDS011;7777;52.254;9.618;2023-02-28T09:59:09;6.47;;;4.07;;
15354;SDS011;7777;52.254;9.618;2023-02-28T10:04:54;7.37;;;3.57;;
15354;SDS011;7777;52.254;9.618;2023-02-28T10:07:58;6.03;;;3.50;;
15354;SDS011;7777;52.254;9.618;2023-02-28T10:16:16;5.30;;;3.27;;
15354;SDS011;7777;52.254;9.618;2023-02-28T10:24:34;10.20;;;4.70;;
15354;SDS011;7777;52.254;9.618;2023-02-28T10:29:42;5.83;;;2.97;;
15354;SDS011;7777;52.254;9.618;2023-02-28T10:32:11;8.13;;;3.50;;
15354;SDS011;7777;52.254;9.618;2023-02-28T10:34:50;5.80;;;3.27;;
15354;SDS011;7777;52.254;9.618;2023-02-28T10:37:33;6.77;;;3.23;;
15354;SDS011;7777;52.254;9.618;2023-02-28T10:40:03;7.70;;;3.70;;
15354;SDS011;7777;52.254;9.618;2023-02-28T10:42:42;5.23;;;3.13;;
15354;SDS011;7777;52.254;9.618;2023-02-28T10:45:21;7.23;;;2.87;;
15354;SDS011;7777;52.254;9.618;2023-02-28T10:47:51;5.50;;;2.80;;
15354;SDS011;7777;52.254;9.618;2023-02-28T10:56:03;5.63;;;2.57;;
15354;SDS011;7777;52.254;9.618;2023-02-28T11:04:18;4.23;;;2.27;;
15354;SDS011;7777;52.254;9.618;2023-02-28T11:06:47;4.80;;;2.50;;
15354;SDS011;7777;52.254;9.618;2023-02-28T11:11:54;3.50;;;2.33;;
15354;SDS011;7777;52.254;9.618;2023-02-28T11:17:19;5.07;;;1.87;;
15354;SDS011;7777;52.254;9.618;2023-02-28T11:19:50;4.67;;;2.30;;
15354;SDS011;7777;52.254;9.618;2023-02-28T11:22:20;5.17;;;2.27;;
15354;SDS011;7777;52.254;9.618;2023-02-28T11:24:52;5.37;;;1.50;;
15354;SDS011;7777;52.254;9.618;2023-02-28T11:29:55;3.63;;;2.07;;
15354;SDS011;7777;52.254;9.618;2023-02-28T11:32:24;3.83;;;2.03;;
15354;SDS011;7777;52.254;9.618;2023-02-28T11:35:03;5.00;;;2.07;;
15354;SDS011;7777;52.254;9.618;2023-02-28T11:37:35;4.03;;;2.03;;
15354;SDS011;7777;52.254;9.618;2023-02-28T11:40:04;5.83;;;1.93;;
15354;SDS011;7777;52.254;9.618;2023-02-28T11:45:54;8.10;;;2.27;;
15354;SDS011;7777;52.254;9.618;2023-02-28T11:51:28;4.33;;;1.87;;
15354;SDS011;7777;52.254;9.618;2023-02-28T11:57:52;5.87;;;2.43;;
15354;SDS011;7777;52.254;9.618;2023-02-28T12:03:15;5.70;;;2.57;;
15354;SDS011;7777;52.254;9.618;2023-02-28T12:06:01;5.23;;;2.40;;
15354;SDS011;7777;52.254;9.618;2023-02-28T12:09:08;5.10;;;2.60;;
15354;SDS011;7777;52.254;9.618;2023-02-28T12:12:48;4.20;;;2.40;;
15354;SDS011;7777;52.254;9.618;2023-02-28T12:20:40;5.53;;;2.33;;
15354;SDS011;7777;52.254;9.618;2023-02-28T12:23:21;4.97;;;2.07;;
15354;SDS011;7777;52.254;9.618;2023-02-28T12:26:10;3.37;;;2.10;;
15354;SDS011;7777;52.254;9.618;2023-02-28T12:28:54;4.57;;;2.50;;
15354;SDS011;7777;52.254;9.618;2023-02-28T12:31:34;10.53;;;2.33;;
15354;SDS011;7777;52.254;9.618;2023-02-28T12:34:10;3.83;;;2.40;;
15354;SDS011;7777;52.254;9.618;2023-02-28T12:36:41;3.13;;;2.10;;
15354;SDS011;7777;52.254;9.618;2023-02-28T12:39:18;7.90;;;2.50;;
15354;SDS011;7777;52.254;9.618;2023-02-28T12:41:51;3.90;;;1.97;;
15354;SDS011;7777;52.254;9.618;2023-02-28T12:44:27;6.70;;;2.10;;
15354;SDS011;7777;52.254;9.618;2023-02-28T12:47:05;4.33;;;2.30;;
15354;SDS011;7777;52.254;9.618;2023-02-28T12:55:23;3.07;;;1.63;;
15354;SDS011;7777;52.254;9.618;2023-02-28T12:58:36;3.30;;;1.80;;
15354;SDS011;7777;52.254;9.618;2023-02-28T13:01:19;4.93;;;2.10;;
15354;SDS011;7777;52.254;9.618;2023-02-28T13:10:00;4.70;;;2.00;;
15354;SDS011;7777;52.254;9.618;2023-02-28T13:12:31;4.83;;;2.00;;
15354;SDS011;7777;52.254;9.618;2023-02-28T13:17:50;11.27;;;2.40;;
15354;SDS011;7777;52.254;9.618;2023-02-28T13:20:19;5.77;;;2.47;;
15354;SDS011;7777;52.254;9.618;2023-02-28T13:22:50;4.20;;;2.23;;
15354;SDS011;7777;52.254;9.618;2023-02-28T13:27:47;3.93;;;1.97;;
15354;SDS011;7777;52.254;9.618;2023-02-28T13:38:40;3.40;;;1.97;;
15354;SDS011;7777;52.254;9.618;2023-02-28T13:51:53;3.27;;;1.93;;
15354;SDS011;7777;52.254;9.618;2023-02-28T13:54:34;2.40;;;1.80;;
15354;SDS011;7777;52.254;9.618;2023-02-28T14:06:31;6.20;;;2.30;;
15354;SDS011;7777;52.254;9.618;2023-02-28T14:09:03;5.10;;;2.00;;
15354;SDS011;7777;52.254;9.618;2023-02-28T14:11:56;7.37;;;2.30;;
15354;SDS011;7777;52.254;9.618;2023-02-28T14:17:03;3.90;;;1.77;;
15354;SDS011;7777;52.254;9.618;2023-02-28T14:19:39;3.80;;;2.17;;
15354;SDS011;7777;52.254;9.618;2023-02-28T14:41:32;3.70;;;1.87;;
15354;SDS011;7777;52.254;9.618;2023-02-28T14:44:02;4.80;;;1.97;;
15354;SDS011;7777;52.254;9.618;2023-02-28T14:46:39;4.50;;;2.23;;
15354;SDS011;7777;52.254;9.618;2023-02-28T14:49:12;7.90;;;2.60;;
15354;SDS011;7777;52.254;9.618;2023-02-28T14:51:46;7.97;;;2.10;;
15354;SDS011;7777;52.254;9.618;2023-02-28T14:54:27;2.87;;;1.90;;
15354;SDS011;7777;52.254;9.618;2023-02-28T14:56:54;2.97;;;1.73;;
15354;SDS011;7777;52.254;9.618;2023-02-28T14:59:24;4.23;;;2.10;;
15354;SDS011;7777;52.254;9.618;2023-02-28T15:04:53;3.97;;;2.30;;
15354;SDS011;7777;52.254;9.618;2023-02-28T15:07:34;3.50;;;2.10;;
15354;SDS011;7777;52.254;9.618;2023-02-28T15:10:18;3.27;;;2.17;;
15354;SDS011;7777;52.254;9.618;2023-02-28T15:13:06;2.77;;;1.77;;
15354;SDS011;7777;52.254;9.618;2023-02-28T15:18:23;4.10;;;2.40;;
15354;SDS011;7777;52.254;9.618;2023-02-28T15:21:22;4.97;;;2.10;;
15354;SDS011;7777;52.254;9.618;2023-02-28T15:26:53;3.27;;;1.97;;
15354;SDS011;7777;52.254;9.618;2023-02-28T15:29:26;4.30;;;2.20;;
15354;SDS011;7777;52.254;9.618;2023-02-28T15:32:07;11.43;;;2.20;;
15354;SDS011;7777;52.254;9.618;2023-02-28T15:34:49;4.13;;;2.20;;
15354;SDS011;7777;52.254;9.618;2023-02-28T15:40:14;3.80;;;2.30;;
15354;SDS011;7777;52.254;9.618;2023-02-28T15:43:03;7.03;;;1.77;;
15354;SDS011;7777;52.254;9.618;2023-02-28T15:45:51;5.10;;;2.20;;
15354;SDS011;7777;52.254;9.618;2023-02-28T15:48:33;3.93;;;2.20;;
15354;SDS011;7777;52.254;9.618;2023-02-28T15:51:20;3.03;;;2.10;;
15354;SDS011;7777;52.254;9.618;2023-02-28T15:54:04;3.67;;;1.97;;
15354;SDS011;7777;52.254;9.618;2023-02-28T15:56:33;3.87;;;2.10;;
15354;SDS011;7777;52.254;9.618;2023-02-28T15:59:13;4.00;;;2.00;;
15354;SDS011;7777;52.254;9.618;2023-02-28T16:04:35;3.50;;;2.30;;
15354;SDS011;7777;52.254;9.618;2023-02-28T16:07:03;3.90;;;2.43;;
15354;SDS011;7777;52.254;9.618;2023-02-28T16:09:30;3.57;;;2.40;;
15354;SDS011;7777;52.254;9.618;2023-02-28T16:11:58;3.23;;;1.87;;
15354;SDS011;7777;52.254;9.618;2023-02-28T16:14:27;4.50;;;2.37;;
15354;SDS011;7777;52.254;9.618;2023-02-28T16:17:02;4.73;;;2.77;;
15354;SDS011;7777;52.254;9.618;2023-02-28T16:19:41;4.13;;;2.50;;
15354;SDS011;7777;52.254;9.618;2023-02-28T16:22:07;4.03;;;2.13;;
15354;SDS011;7777;52.254;9.618;2023-02-28T16:24:34;6.20;;;2.30;;
15354;SDS011;7777;52.254;9.618;2023-02-28T16:27:01;4.33;;;2.50;;
15354;SDS011;7777;52.254;9.618;2023-02-28T16:29:31;3.83;;;2.30;;
15354;SDS011;7777;52.254;9.618;2023-02-28T16:32:01;3.50;;;2.30;;
15354;SDS011;7777;52.254;9.618;2023-02-28T16:34:30;6.63;;;2.70;;
15354;SDS011;7777;52.254;9.618;2023-02-28T16:36:56;4.47;;;2.30;;
15354;SDS011;7777;52.254;9.618;2023-02-28T16:39:22;5.67;;;2.30;;
15354;SDS011;7777;52.254;9.618;2023-02-28T16:41:48;9.07;;;2.70;;
15354;SDS011;7777;52.254;9.618;2023-02-28T16:44:29;4.37;;;2.53;;
15354;SDS011;7777;52.254;9.618;2023-02-28T16:47:02;4.47;;;2.80;;
15354;SDS011;7777;52.254;9.618;2023-02-28T16:49:29;3.90;;;2.40;;
15354;SDS011;7777;52.254;9.618;2023-02-28T16:51:55;4.60;;;2.63;;
15354;SDS011;7777;52.254;9.618;2023-02-28T16:54:27;4.93;;;2.43;;
15354;SDS011;7777;52.254;9.618;2023-02-28T16:56:53;4.10;;;2.13;;
15354;SDS011;7777;52.254;9.618;2023-02-28T16:59:21;5.30;;;2.67;;
15354;SDS011;7777;52.254;9.618;2023-02-28T17:01:49;10.87;;;5.70;;
15354;SDS011;7777;52.254;9.618;2023-02-28T17:04:16;12.63;;;6.10;;
15354;SDS011;7777;52.254;9.618;2023-02-28T17:06:42;16.17;;;8.57;;
15354;SDS011;7777;52.254;9.618;2023-02-28T17:09:18;7.13;;;4.57;;
15354;SDS011;7777;52.254;9.618;2023-02-28T17:11:47;6.23;;;3.67;;
15354;SDS011;7777;52.254;9.618;2023-02-28T17:14:13;6.77;;;3.20;;
15354;SDS011;7777;52.254;9.618;2023-02-28T17:16:40;7.93;;;3.77;;
15354;SDS011;7777;52.254;9.618;2023-02-28T17:19:11;6.23;;;4.23;;
15354;SDS011;7777;52.254;9.618;2023-02-28T17:21:39;7.97;;;4.63;;
15354;SDS011;7777;52.254;9.618;2023-02-28T17:24:09;9.57;;;6.40;;
15354;SDS011;7777;52.254;9.618;2023-02-28T17:26:39;15.90;;;8.93;;
15354;SDS011;7777;52.254;9.618;2023-02-28T17:29:19;12.33;;;7.40;;
15354;SDS011;7777;52.254;9.618;2023-02-28T17:31:46;15.47;;;7.17;;
15354;SDS011;7777;52.254;9.618;2023-02-28T17:34:12;12.47;;;7.60;;
15354;SDS011;7777;52.254;9.618;2023-02-28T17:36:43;14.40;;;8.50;;
15354;SDS011;7777;52.254;9.618;2023-02-28T17:39:11;10.83;;;6.43;;
15354;SDS011;7777;52.254;9.618;2023-02-28T17:41:44;9.83;;;6.80;;
15354;SDS011;7777;52.254;9.618;2023-02-28T17:44:10;9.67;;;6.00;;
15354;SDS011;7777;52.254;9.618;2023-02-28T17:46:36;10.10;;;5.67;;
15354;SDS011;7777;52.254;9.618;2023-02-28T17:49:02;8.03;;;5.37;;
15354;SDS011;7777;52.254;9.618;2023-02-28T17:51:28;9.53;;;5.97;;
15354;SDS011;7777;52.254;9.618;2023-02-28T17:53:54;9.50;;;6.20;;
15354;SDS011;7777;52.254;9.618;2023-02-28T17:56:23;14.60;;;9.37;;
15354;SDS011;7777;52.254;9.618;2023-02-28T17:58:51;10.90;;;8.10;;
15354;SDS011;7777;52.254;9.618;2023-02-28T18:01:19;10.80;;;6.10;;
15354;SDS011;7777;52.254;9.618;2023-02-28T18:03:46;8.77;;;4.53;;
15354;SDS011;7777;52.254;9.618;2023-02-28T18:06:33;7.47;;;5.10;;
15354;SDS011;7777;52.254;9.618;2023-02-28T18:09:11;6.40;;;4.27;;
15354;SDS011;7777;52.254;9.618;2023-02-28T18:11:42;7.63;;;5.00;;
15354;SDS011;7777;52.254;9.618;2023-02-28T18:14:14;5.93;;;4.20;;
15354;SDS011;7777;52.254;9.618;2023-02-28T18:16:40;8.30;;;3.50;;
15354;SDS011;7777;52.254;9.618;2023-02-28T18:19:07;6.93;;;3.50;;